Webster Springs, WV (26288)

7:16 AM EDT on August 26, 2016 (GMT -0400)
3301 airport rd sutton wv | | Change Station

Elev 1299 ft 38.70 °N, 80.65 °W | Updated 10 minutes ago

Mist
Mist
70.7 °F
Feels Like 70.7 °F
N
0.0
Wind Variable Wind from ESE

Today
High -- | Low -- °F
--% Chance of Precip.
Yesterday
High -- | Low -- °F
Precip. -- in
Pressure 30.18 in
Visibility 1.2 miles
Clouds
Dew Point 68 °F
Humidity 90%
Rainfall 0.00 in
Snow Depth Not available.
6:45 AM 7:59 PM
Waning Crescent, 35% visible
METAR KW22 261055Z AUTO 20003KT 1 1/4SM BR 22/22 A3018 RMK AO2 PWINO
Pressure 30.18 in
Visibility 1.2 miles
Clouds
Dew Point 68 °F
Humidity 90%
Rainfall 0.00 in
Snow Depth Not available.
6:45 AM 7:59 PM
Waning Crescent, 35% visible
METAR KW22 261055Z AUTO 20003KT 1 1/4SM BR 22/22 A3018 RMK AO2 PWINO

10-Day Weather Forecast

Almanac

Astronomy

Aug. 26, 2016 Rise Set
Actual Time
Civil Twilight
Nautical Twilight
Astronomical Twilight
Moon
Length of Visible Light
Length of Day
Tomorrow will be .
, % of the Moon is Illuminated

Today's Extremes

State Highs State Lows

Community

WunderPhotos

Upload Photos

1,935,069 photos uploaded!

WunderBlog® & News

Nearby

Air Quality

  Air Quality AQ Index Pollutant
Not available.

Snow Depth

Station Depth Elevation

Earthquake Activity

City Distance Mag. Time & Date
Minimum magnitude displayed is 2.5.

Coastal Water Temperatures

Place Temperature

Stations

Nearby Weather Stations

Station Location Temp. Windchill Dew Point Humidity Wind Precip. Elev Updated Type
                   

Watches & Warnings

There are currently no watches in effect.